JA321B RJOM-RJFF
Flight info
| Callsign | JA321B |
|---|---|
| Flight time | 0h 38m |
| Altitude | 26000 |
| Route | MARCO2 MARCO Y256 STOUT Y20 KIRIN KIRINE |
| Aircraft | HDJT/L-SABDGRWY/H |
Departure
| Time | 2026-05-07 12:57 |
|---|---|
| Airport | Matsuyama Airport (RJOM) |
Arrival
| Time | 2026-05-07 13:36 |
|---|---|
| Airport | Fukuoka Airport (RJFF) |
| Time | Latitude | Longitude | Altitude | Speed | Heading |
|---|---|---|---|---|---|
| 2026-05-07 12:42 | 33.82956 | 132.70028 | 20 ft | 0 kts | 46° |
| 2026-05-07 12:53 | 33.82964 | 132.70025 | 20 ft | 2 kts | 275° |
| 2026-05-07 12:53 | 33.82952 | 132.70014 | 20 ft | 4 kts | 201° |
| 2026-05-07 12:53 | 33.82937 | 132.69975 | 20 ft | 6 kts | 284° |
| 2026-05-07 12:54 | 33.82976 | 132.69919 | 20 ft | 11 kts | 312° |
| 2026-05-07 12:54 | 33.83022 | 132.69853 | 20 ft | 12 kts | 311° |
| 2026-05-07 12:54 | 33.83084 | 132.69766 | 20 ft | 15 kts | 310° |
| 2026-05-07 12:54 | 33.83161 | 132.69658 | 20 ft | 17 kts | 310° |
| 2026-05-07 12:55 | 33.83232 | 132.69557 | 20 ft | 14 kts | 310° |
| 2026-05-07 12:55 | 33.83282 | 132.69485 | 20 ft | 10 kts | 309° |
| 2026-05-07 12:55 | 33.83293 | 132.69428 | 20 ft | 7 kts | 258° |
| 2026-05-07 12:55 | 33.83252 | 132.69370 | 19 ft | 11 kts | 219° |
| 2026-05-07 12:56 | 33.83192 | 132.69331 | 18 ft | 8 kts | 174° |
| 2026-05-07 12:56 | 33.83158 | 132.69356 | 18 ft | 4 kts | 129° |
| 2026-05-07 12:56 | 33.83155 | 132.69359 | 18 ft | 0 kts | 129° |
| 2026-05-07 12:56 | 33.83152 | 132.69365 | 18 ft | 5 kts | 129° |
| 2026-05-07 12:57 | 33.83020 | 132.69549 | 19 ft | 65 kts | 130° |
| 2026-05-07 12:57 | 33.82552 | 132.70202 | 74 ft | 134 kts | 131° |
| 2026-05-07 12:57 | 33.81887 | 132.71129 | 799 ft | 157 kts | 131° |
| 2026-05-07 12:57 | 33.81065 | 132.72202 | 1521 ft | 193 kts | 140° |
| 2026-05-07 12:58 | 33.79745 | 132.72836 | 2332 ft | 220 kts | 177° |
| 2026-05-07 12:58 | 33.78216 | 132.72374 | 3305 ft | 238 kts | 211° |
| 2026-05-07 12:58 | 33.77085 | 132.70889 | 4368 ft | 250 kts | 243° |
| 2026-05-07 12:58 | 33.76750 | 132.68819 | 5493 ft | 259 kts | 271° |
| 2026-05-07 12:59 | 33.76968 | 132.66653 | 6674 ft | 262 kts | 275° |
| 2026-05-07 12:59 | 33.77108 | 132.64476 | 7618 ft | 269 kts | 272° |
| 2026-05-07 12:59 | 33.77543 | 132.62256 | 8463 ft | 277 kts | 289° |
| 2026-05-07 12:59 | 33.78440 | 132.60155 | 9340 ft | 283 kts | 301° |
| 2026-05-07 13:00 | 33.79709 | 132.58355 | 10175 ft | 288 kts | 309° |
| 2026-05-07 13:00 | 33.81045 | 132.56475 | 10696 ft | 299 kts | 304° |
| 2026-05-07 13:00 | 33.82269 | 132.54457 | 11513 ft | 298 kts | 302° |
| 2026-05-07 13:00 | 33.83525 | 132.52461 | 12271 ft | 300 kts | 304° |
| 2026-05-07 13:01 | 33.84845 | 132.50513 | 12968 ft | 302 kts | 304° |
| 2026-05-07 13:01 | 33.86150 | 132.48519 | 13588 ft | 305 kts | 303° |
| 2026-05-07 13:01 | 33.87439 | 132.46487 | 14218 ft | 308 kts | 303° |
| 2026-05-07 13:01 | 33.88768 | 132.44437 | 14825 ft | 311 kts | 303° |
| 2026-05-07 13:02 | 33.90142 | 132.42330 | 14943 ft | 328 kts | 303° |
| 2026-05-07 13:02 | 33.91547 | 132.40160 | 14946 ft | 326 kts | 303° |
| 2026-05-07 13:02 | 33.92933 | 132.38023 | 14944 ft | 322 kts | 303° |
| 2026-05-07 13:02 | 33.94302 | 132.35906 | 15269 ft | 317 kts | 303° |
| 2026-05-07 13:03 | 33.95647 | 132.33817 | 15956 ft | 316 kts | 303° |
| 2026-05-07 13:03 | 33.97001 | 132.31717 | 16474 ft | 319 kts | 303° |
| 2026-05-07 13:03 | 33.98352 | 132.29626 | 16972 ft | 322 kts | 303° |
| 2026-05-07 13:03 | 33.99755 | 132.27456 | 17489 ft | 325 kts | 302° |
| 2026-05-07 13:04 | 34.01143 | 132.25295 | 17932 ft | 329 kts | 302° |
| 2026-05-07 13:04 | 34.02577 | 132.23062 | 17944 ft | 344 kts | 302° |
| 2026-05-07 13:04 | 34.04043 | 132.20795 | 17946 ft | 341 kts | 303° |
| 2026-05-07 13:04 | 34.05494 | 132.18549 | 17944 ft | 339 kts | 302° |
| 2026-05-07 13:05 | 34.06783 | 132.16246 | 17943 ft | 334 kts | 294° |
| 2026-05-07 13:05 | 34.07729 | 132.13669 | 17943 ft | 331 kts | 285° |
| 2026-05-07 13:05 | 34.08314 | 132.10998 | 17943 ft | 327 kts | 276° |
| 2026-05-07 13:05 | 34.08594 | 132.08285 | 17944 ft | 325 kts | 273° |
| 2026-05-07 13:06 | 34.08869 | 132.05577 | 17945 ft | 326 kts | 274° |
| 2026-05-07 13:06 | 34.09171 | 132.02867 | 17947 ft | 326 kts | 274° |
| 2026-05-07 13:06 | 34.09448 | 132.00195 | 17946 ft | 325 kts | 273° |
| 2026-05-07 13:06 | 34.09708 | 131.97480 | 17948 ft | 327 kts | 274° |
| 2026-05-07 13:07 | 34.09986 | 131.94749 | 17948 ft | 326 kts | 274° |
| 2026-05-07 13:07 | 34.10269 | 131.92037 | 17948 ft | 325 kts | 274° |
| 2026-05-07 13:07 | 34.10539 | 131.89325 | 17946 ft | 325 kts | 274° |
| 2026-05-07 13:07 | 34.10810 | 131.86610 | 17946 ft | 326 kts | 274° |
| 2026-05-07 13:08 | 34.11087 | 131.83896 | 17948 ft | 326 kts | 274° |
| 2026-05-07 13:08 | 34.11358 | 131.81214 | 17948 ft | 326 kts | 274° |
| 2026-05-07 13:08 | 34.11634 | 131.78466 | 17948 ft | 325 kts | 274° |
| 2026-05-07 13:08 | 34.11899 | 131.75755 | 17943 ft | 324 kts | 274° |
| 2026-05-07 13:09 | 34.12172 | 131.73053 | 17943 ft | 325 kts | 274° |
| 2026-05-07 13:09 | 34.12439 | 131.70345 | 17947 ft | 325 kts | 274° |
| 2026-05-07 13:09 | 34.12709 | 131.67638 | 17948 ft | 325 kts | 274° |
| 2026-05-07 13:09 | 34.12974 | 131.64930 | 17947 ft | 325 kts | 273° |
| 2026-05-07 13:10 | 34.13245 | 131.62214 | 17950 ft | 326 kts | 274° |
| 2026-05-07 13:10 | 34.13518 | 131.59502 | 17948 ft | 325 kts | 274° |
| 2026-05-07 13:10 | 34.13781 | 131.56794 | 17950 ft | 324 kts | 273° |
| 2026-05-07 13:10 | 34.14040 | 131.54089 | 17948 ft | 324 kts | 273° |
| 2026-05-07 13:11 | 34.14308 | 131.51390 | 17947 ft | 324 kts | 273° |
| 2026-05-07 13:11 | 34.14576 | 131.48681 | 17945 ft | 325 kts | 273° |
| 2026-05-07 13:11 | 34.14834 | 131.46008 | 17943 ft | 324 kts | 273° |
| 2026-05-07 13:11 | 34.15097 | 131.43311 | 17942 ft | 323 kts | 273° |
| 2026-05-07 13:12 | 34.15357 | 131.40625 | 17939 ft | 324 kts | 273° |
| 2026-05-07 13:12 | 34.15618 | 131.37918 | 17944 ft | 324 kts | 273° |
| 2026-05-07 13:12 | 34.15879 | 131.35215 | 17943 ft | 323 kts | 273° |
| 2026-05-07 13:12 | 34.16138 | 131.32525 | 17939 ft | 322 kts | 273° |
| 2026-05-07 13:13 | 34.16400 | 131.29840 | 17944 ft | 323 kts | 273° |
| 2026-05-07 13:13 | 34.16655 | 131.27145 | 17944 ft | 323 kts | 273° |
| 2026-05-07 13:13 | 34.16913 | 131.24451 | 17943 ft | 323 kts | 273° |
| 2026-05-07 13:13 | 34.17170 | 131.21763 | 17943 ft | 322 kts | 273° |
| 2026-05-07 13:14 | 34.17419 | 131.19077 | 17943 ft | 322 kts | 272° |
| 2026-05-07 13:14 | 34.17676 | 131.16383 | 17919 ft | 323 kts | 273° |
| 2026-05-07 13:14 | 34.17942 | 131.13696 | 17930 ft | 321 kts | 273° |
| 2026-05-07 13:14 | 34.18192 | 131.11014 | 17948 ft | 321 kts | 272° |
| 2026-05-07 13:15 | 34.18440 | 131.08347 | 17944 ft | 321 kts | 272° |
| 2026-05-07 13:15 | 34.18689 | 131.05651 | 17949 ft | 320 kts | 272° |
| 2026-05-07 13:15 | 34.18705 | 131.03036 | 17938 ft | 312 kts | 263° |
| 2026-05-07 13:15 | 34.18387 | 131.00432 | 17924 ft | 316 kts | 256° |
| 2026-05-07 13:16 | 34.17750 | 130.97900 | 17938 ft | 314 kts | 248° |
| 2026-05-07 13:16 | 34.16871 | 130.95481 | 17948 ft | 315 kts | 245° |
| 2026-05-07 13:16 | 34.16008 | 130.93056 | 17946 ft | 314 kts | 245° |
| 2026-05-07 13:16 | 34.14831 | 130.90885 | 17616 ft | 300 kts | 231° |
| 2026-05-07 13:17 | 34.13300 | 130.89076 | 16721 ft | 314 kts | 223° |
| 2026-05-07 13:17 | 34.11645 | 130.87388 | 16236 ft | 309 kts | 222° |
| 2026-05-07 13:17 | 34.09983 | 130.85737 | 15758 ft | 310 kts | 222° |
| 2026-05-07 13:17 | 34.08316 | 130.84092 | 15271 ft | 307 kts | 222° |
| 2026-05-07 13:18 | 34.06664 | 130.82466 | 14773 ft | 307 kts | 222° |
| 2026-05-07 13:18 | 34.05022 | 130.80853 | 14276 ft | 296 kts | 222° |
| 2026-05-07 13:18 | 34.03486 | 130.79352 | 13763 ft | 272 kts | 222° |
| 2026-05-07 13:18 | 34.02068 | 130.77981 | 13246 ft | 252 kts | 221° |
| 2026-05-07 13:19 | 34.00742 | 130.76706 | 12731 ft | 237 kts | 222° |
| 2026-05-07 13:19 | 33.99474 | 130.75489 | 12222 ft | 231 kts | 222° |
| 2026-05-07 13:19 | 33.98225 | 130.74298 | 11966 ft | 223 kts | 222° |
| 2026-05-07 13:19 | 33.96985 | 130.73122 | 12000 ft | 237 kts | 222° |
| 2026-05-07 13:20 | 33.95631 | 130.71822 | 12012 ft | 261 kts | 222° |
| 2026-05-07 13:20 | 33.94187 | 130.70421 | 12011 ft | 284 kts | 221° |
| 2026-05-07 13:20 | 33.93152 | 130.69411 | 12010 ft | 293 kts | 222° |
| 2026-05-07 13:20 | 33.91568 | 130.67863 | 12011 ft | 293 kts | 222° |
| 2026-05-07 13:21 | 33.89979 | 130.66308 | 12008 ft | 296 kts | 222° |
| 2026-05-07 13:21 | 33.88390 | 130.64735 | 12005 ft | 295 kts | 226° |
| 2026-05-07 13:21 | 33.87254 | 130.62725 | 11992 ft | 292 kts | 249° |
| 2026-05-07 13:21 | 33.86882 | 130.60317 | 11658 ft | 296 kts | 266° |
| 2026-05-07 13:22 | 33.86928 | 130.57874 | 11217 ft | 292 kts | 271° |
| 2026-05-07 13:22 | 33.87047 | 130.55441 | 10756 ft | 289 kts | 271° |
| 2026-05-07 13:22 | 33.87184 | 130.53087 | 10311 ft | 270 kts | 272° |
| 2026-05-07 13:22 | 33.87320 | 130.50879 | 9845 ft | 263 kts | 272° |
| 2026-05-07 13:23 | 33.87458 | 130.48681 | 9395 ft | 263 kts | 271° |
| 2026-05-07 13:23 | 33.87596 | 130.46495 | 8940 ft | 262 kts | 272° |
| 2026-05-07 13:23 | 33.87736 | 130.44307 | 8492 ft | 262 kts | 272° |
| 2026-05-07 13:23 | 33.87880 | 130.42136 | 8043 ft | 258 kts | 272° |
| 2026-05-07 13:24 | 33.88026 | 130.39976 | 7592 ft | 258 kts | 272° |
| 2026-05-07 13:24 | 33.88171 | 130.37834 | 7147 ft | 256 kts | 272° |
| 2026-05-07 13:24 | 33.88320 | 130.35725 | 7005 ft | 251 kts | 272° |
| 2026-05-07 13:24 | 33.88470 | 130.33600 | 7011 ft | 256 kts | 272° |
| 2026-05-07 13:25 | 33.88614 | 130.31522 | 7011 ft | 256 kts | 272° |
| 2026-05-07 13:25 | 33.88723 | 130.29948 | 7010 ft | 256 kts | 272° |
| 2026-05-07 13:25 | 33.88867 | 130.27814 | 7009 ft | 256 kts | 272° |
| 2026-05-07 13:25 | 33.89017 | 130.25678 | 7008 ft | 256 kts | 272° |
| 2026-05-07 13:26 | 33.89170 | 130.23540 | 7007 ft | 256 kts | 272° |
| 2026-05-07 13:26 | 33.89322 | 130.21411 | 7006 ft | 255 kts | 272° |
| 2026-05-07 13:26 | 33.89477 | 130.19281 | 7006 ft | 255 kts | 271° |
| 2026-05-07 13:26 | 33.89280 | 130.17192 | 6995 ft | 251 kts | 248° |
| 2026-05-07 13:27 | 33.88268 | 130.15526 | 6995 ft | 249 kts | 219° |
| 2026-05-07 13:27 | 33.86682 | 130.14698 | 6998 ft | 254 kts | 192° |
| 2026-05-07 13:27 | 33.84907 | 130.14613 | 7011 ft | 256 kts | 182° |
| 2026-05-07 13:27 | 33.83125 | 130.14657 | 7009 ft | 256 kts | 182° |
| 2026-05-07 13:28 | 33.81341 | 130.14707 | 7008 ft | 256 kts | 182° |
| 2026-05-07 13:28 | 33.79559 | 130.14755 | 7009 ft | 256 kts | 182° |
| 2026-05-07 13:28 | 33.77800 | 130.14799 | 7009 ft | 256 kts | 182° |
| 2026-05-07 13:28 | 33.76016 | 130.14846 | 7005 ft | 258 kts | 182° |
| 2026-05-07 13:29 | 33.74222 | 130.14894 | 7006 ft | 258 kts | 180° |
| 2026-05-07 13:29 | 33.72485 | 130.15467 | 7003 ft | 265 kts | 154° |
| 2026-05-07 13:29 | 33.71120 | 130.16964 | 6785 ft | 279 kts | 130° |
| 2026-05-07 13:29 | 33.70139 | 130.18915 | 6243 ft | 264 kts | 122° |
| 2026-05-07 13:30 | 33.69280 | 130.20828 | 5686 ft | 259 kts | 122° |
| 2026-05-07 13:30 | 33.68409 | 130.22765 | 5143 ft | 268 kts | 122° |
| 2026-05-07 13:30 | 33.67534 | 130.24679 | 4595 ft | 253 kts | 122° |
| 2026-05-07 13:30 | 33.66683 | 130.26522 | 4038 ft | 252 kts | 122° |
| 2026-05-07 13:31 | 33.65830 | 130.28353 | 3485 ft | 250 kts | 122° |
| 2026-05-07 13:31 | 33.64974 | 130.30166 | 2938 ft | 249 kts | 122° |
| 2026-05-07 13:31 | 33.64135 | 130.31934 | 2392 ft | 236 kts | 121° |
| 2026-05-07 13:31 | 33.63334 | 130.33587 | 2012 ft | 219 kts | 122° |
| 2026-05-07 13:32 | 33.62587 | 130.35068 | 1998 ft | 198 kts | 122° |
| 2026-05-07 13:32 | 33.61880 | 130.36467 | 2001 ft | 196 kts | 122° |
| 2026-05-07 13:32 | 33.61176 | 130.37866 | 1934 ft | 197 kts | 121° |
| 2026-05-07 13:32 | 33.60504 | 130.39285 | 1752 ft | 195 kts | 117° |
| 2026-05-07 13:33 | 33.59784 | 130.40623 | 1463 ft | 186 kts | 134° |
| 2026-05-07 13:33 | 33.58829 | 130.41595 | 1361 ft | 178 kts | 141° |
| 2026-05-07 13:33 | 33.57857 | 130.42506 | 1116 ft | 182 kts | 143° |
| 2026-05-07 13:33 | 33.56818 | 130.43423 | 899 ft | 183 kts | 143° |
| 2026-05-07 13:34 | 33.55920 | 130.44227 | 785 ft | 145 kts | 143° |
| 2026-05-07 13:34 | 33.54754 | 130.45520 | 653 ft | 101 kts | 85° |
| 2026-05-07 13:34 | 33.55211 | 130.46274 | 596 ft | 116 kts | 40° |
| 2026-05-07 13:35 | 33.55922 | 130.46647 | 446 ft | 112 kts | 3° |
| 2026-05-07 13:35 | 33.56678 | 130.46377 | 300 ft | 117 kts | 332° |
| 2026-05-07 13:35 | 33.57381 | 130.45892 | 123 ft | 114 kts | 330° |
| 2026-05-07 13:35 | 33.58044 | 130.45439 | 35 ft | 105 kts | 330° |
| 2026-05-07 13:36 | 33.58596 | 130.45066 | 32 ft | 78 kts | 330° |
| 2026-05-07 13:36 | 33.58908 | 130.44852 | 26 ft | 34 kts | 328° |
| 2026-05-07 13:36 | 33.59055 | 130.44735 | 25 ft | 20 kts | 323° |
| 2026-05-07 13:36 | 33.59133 | 130.44634 | 22 ft | 15 kts | 303° |
| 2026-05-07 13:37 | 33.59188 | 130.44531 | 22 ft | 14 kts | 302° |
| 2026-05-07 13:37 | 33.59229 | 130.44443 | 24 ft | 10 kts | 276° |
| 2026-05-07 13:37 | 33.59206 | 130.44371 | 24 ft | 9 kts | 240° |
| 2026-05-07 13:37 | 33.59184 | 130.44326 | 25 ft | 0 kts | 239° |
| 2026-05-07 13:38 | 33.59181 | 130.44318 | 25 ft | 2 kts | 252° |
| 2026-05-07 13:38 | 33.59180 | 130.44311 | 25 ft | 3 kts | 275° |
| 2026-05-07 13:38 | 33.59181 | 130.44308 | 25 ft | 0 kts | 276° |
| 2026-05-07 13:39 | 33.59173 | 130.44300 | 25 ft | 4 kts | 189° |
| 2026-05-07 13:39 | 33.59129 | 130.44325 | 25 ft | 12 kts | 151° |
| 2026-05-07 13:39 | 33.59033 | 130.44388 | 24 ft | 17 kts | 150° |
| 2026-05-07 13:39 | 33.58944 | 130.44447 | 26 ft | 13 kts | 151° |
| 2026-05-07 13:40 | 33.58875 | 130.44494 | 27 ft | 10 kts | 151° |
| 2026-05-07 13:40 | 33.58818 | 130.44506 | 27 ft | 8 kts | 219° |
| 2026-05-07 13:40 | 33.58784 | 130.44444 | 26 ft | 10 kts | 240° |
| 2026-05-07 13:40 | 33.58758 | 130.44388 | 25 ft | 3 kts | 241° |
| 2026-05-07 13:41 | 33.58755 | 130.44382 | 25 ft | 0 kts | 240° |